sensor_id;sensor_type;location;lat;lon;timestamp;pressure;altitude;pressure_sealevel;temperature;humidity
46015;BME280;36844;51.898;-0.874;2023-09-18T00:01:30;99185.91;;;21.00;
46015;BME280;36844;51.898;-0.874;2023-09-18T00:03:55;99181.56;;;21.02;
46015;BME280;36844;51.898;-0.874;2023-09-18T00:06:20;99172.50;;;20.96;
46015;BME280;36844;51.898;-0.874;2023-09-18T00:08:48;99149.94;;;20.90;
46015;BME280;36844;51.898;-0.874;2023-09-18T00:11:15;99125.13;;;20.82;
46015;BME280;36844;51.898;-0.874;2023-09-18T00:13:40;99123.34;;;20.88;
46015;BME280;36844;51.898;-0.874;2023-09-18T00:16:06;99128.63;;;20.92;
46015;BME280;36844;51.898;-0.874;2023-09-18T00:18:31;99145.91;;;20.95;
46015;BME280;36844;51.898;-0.874;2023-09-18T00:20:57;99142.41;;;20.94;
46015;BME280;36844;51.898;-0.874;2023-09-18T00:23:23;99121.66;;;20.82;
46015;BME280;36844;51.898;-0.874;2023-09-18T00:25:48;99122.88;;;20.81;
46015;BME280;36844;51.898;-0.874;2023-09-18T00:28:14;99144.38;;;20.93;
46015;BME280;36844;51.898;-0.874;2023-09-18T00:30:44;99152.97;;;21.01;
46015;BME280;36844;51.898;-0.874;2023-09-18T00:33:11;99124.66;;;20.84;
46015;BME280;36844;51.898;-0.874;2023-09-18T00:35:36;99131.31;;;20.83;
46015;BME280;36844;51.898;-0.874;2023-09-18T00:38:02;99139.88;;;20.90;
46015;BME280;36844;51.898;-0.874;2023-09-18T00:40:28;99142.41;;;20.94;
46015;BME280;36844;51.898;-0.874;2023-09-18T00:42:54;99119.72;;;20.92;
46015;BME280;36844;51.898;-0.874;2023-09-18T00:45:20;99114.75;;;20.81;
46015;BME280;36844;51.898;-0.874;2023-09-18T00:47:45;99112.34;;;20.83;
46015;BME280;36844;51.898;-0.874;2023-09-18T00:50:13;99129.03;;;20.90;
46015;BME280;36844;51.898;-0.874;2023-09-18T00:52:39;99136.25;;;20.93;
46015;BME280;36844;51.898;-0.874;2023-09-18T00:55:06;99134.44;;;20.90;
46015;BME280;36844;51.898;-0.874;2023-09-18T00:57:32;99115.94;;;20.80;
46015;BME280;36844;51.898;-0.874;2023-09-18T00:59:57;99138.19;;;20.93;
46015;BME280;36844;51.898;-0.874;2023-09-18T01:02:23;99132.03;;;20.83;
46015;BME280;36844;51.898;-0.874;2023-09-18T01:04:49;99134.94;;;20.89;
46015;BME280;36844;51.898;-0.874;2023-09-18T01:07:14;99118.34;;;20.87;
46015;BME280;36844;51.898;-0.874;2023-09-18T01:09:40;99107.41;;;20.81;
46015;BME280;36844;51.898;-0.874;2023-09-18T01:14:51;99095.97;;;20.77;
46015;BME280;36844;51.898;-0.874;2023-09-18T01:17:22;99119.25;;;20.93;
46015;BME280;36844;51.898;-0.874;2023-09-18T01:19:47;99104.53;;;20.85;
46015;BME280;36844;51.898;-0.874;2023-09-18T01:22:14;99098.38;;;20.84;
46015;BME280;36844;51.898;-0.874;2023-09-18T01:24:40;99080.34;;;20.81;
46015;BME280;36844;51.898;-0.874;2023-09-18T01:27:14;99104.25;;;20.92;
46015;BME280;36844;51.898;-0.874;2023-09-18T01:29:40;99081.06;;;20.82;
46015;BME280;36844;51.898;-0.874;2023-09-18T01:32:06;99062.00;;;20.76;
46015;BME280;36844;51.898;-0.874;2023-09-18T01:34:57;99056.72;;;20.82;
46015;BME280;36844;51.898;-0.874;2023-09-18T01:37:23;99057.03;;;20.84;
46015;BME280;36844;51.898;-0.874;2023-09-18T01:39:51;99055.53;;;20.83;
46015;BME280;36844;51.898;-0.874;2023-09-18T01:42:17;99054.63;;;20.86;
46015;BME280;36844;51.898;-0.874;2023-09-18T01:44:44;99055.19;;;20.90;
46015;BME280;36844;51.898;-0.874;2023-09-18T01:47:14;99047.09;;;20.90;
46015;BME280;36844;51.898;-0.874;2023-09-18T01:49:40;99027.25;;;20.84;
46015;BME280;36844;51.898;-0.874;2023-09-18T01:52:07;99005.75;;;20.80;
46015;BME280;36844;51.898;-0.874;2023-09-18T01:54:33;99020.94;;;20.87;
46015;BME280;36844;51.898;-0.874;2023-09-18T01:56:59;99009.69;;;20.88;
46015;BME280;36844;51.898;-0.874;2023-09-18T01:59:25;98980.03;;;20.67;
46015;BME280;36844;51.898;-0.874;2023-09-18T02:01:51;98995.69;;;20.72;
46015;BME280;36844;51.898;-0.874;2023-09-18T02:04:16;99016.72;;;20.86;
46015;BME280;36844;51.898;-0.874;2023-09-18T02:06:43;99012.97;;;20.83;
46015;BME280;36844;51.898;-0.874;2023-09-18T02:09:08;99004.56;;;20.81;
46015;BME280;36844;51.898;-0.874;2023-09-18T02:11:39;98979.72;;;20.74;
46015;BME280;36844;51.898;-0.874;2023-09-18T02:14:05;98998.53;;;20.86;
46015;BME280;36844;51.898;-0.874;2023-09-18T02:16:34;98984.41;;;20.82;
46015;BME280;36844;51.898;-0.874;2023-09-18T02:19:01;98982.28;;;20.86;
46015;BME280;36844;51.898;-0.874;2023-09-18T02:21:26;98950.31;;;20.76;
46015;BME280;36844;51.898;-0.874;2023-09-18T02:23:52;98949.84;;;20.77;
46015;BME280;36844;51.898;-0.874;2023-09-18T02:26:18;98953.59;;;20.80;
46015;BME280;36844;51.898;-0.874;2023-09-18T02:28:44;98939.03;;;20.77;
46015;BME280;36844;51.898;-0.874;2023-09-18T02:31:09;98942.19;;;20.76;
46015;BME280;36844;51.898;-0.874;2023-09-18T02:33:35;98938.25;;;20.77;
46015;BME280;36844;51.898;-0.874;2023-09-18T02:36:00;98929.56;;;20.73;
46015;BME280;36844;51.898;-0.874;2023-09-18T02:38:27;98923.66;;;20.74;
46015;BME280;36844;51.898;-0.874;2023-09-18T02:40:52;98919.00;;;20.75;
46015;BME280;36844;51.898;-0.874;2023-09-18T02:43:19;98909.09;;;20.72;
46015;BME280;36844;51.898;-0.874;2023-09-18T02:45:44;98907.59;;;20.71;
46015;BME280;36844;51.898;-0.874;2023-09-18T02:48:11;98913.34;;;20.73;
46015;BME280;36844;51.898;-0.874;2023-09-18T02:50:36;98925.50;;;20.77;
46015;BME280;36844;51.898;-0.874;2023-09-18T02:53:01;98926.53;;;20.71;
46015;BME280;36844;51.898;-0.874;2023-09-18T02:55:28;98910.94;;;20.66;
46015;BME280;36844;51.898;-0.874;2023-09-18T02:57:53;98917.66;;;20.70;
46015;BME280;36844;51.898;-0.874;2023-09-18T03:00:19;98917.50;;;20.74;
46015;BME280;36844;51.898;-0.874;2023-09-18T03:02:44;98926.97;;;20.78;
46015;BME280;36844;51.898;-0.874;2023-09-18T03:05:09;98911.81;;;20.63;
46015;BME280;36844;51.898;-0.874;2023-09-18T03:07:35;98925.19;;;20.66;
46015;BME280;36844;51.898;-0.874;2023-09-18T03:10:00;98936.44;;;20.74;
46015;BME280;36844;51.898;-0.874;2023-09-18T03:12:25;98934.38;;;20.69;
46015;BME280;36844;51.898;-0.874;2023-09-18T03:14:51;98954.94;;;20.75;
46015;BME280;36844;51.898;-0.874;2023-09-18T03:17:16;98948.81;;;20.66;
46015;BME280;36844;51.898;-0.874;2023-09-18T03:19:41;98938.25;;;20.68;
46015;BME280;36844;51.898;-0.874;2023-09-18T03:22:07;98947.59;;;20.76;
46015;BME280;36844;51.898;-0.874;2023-09-18T03:24:32;98937.84;;;20.69;
46015;BME280;36844;51.898;-0.874;2023-09-18T03:26:57;98918.72;;;20.64;
46015;BME280;36844;51.898;-0.874;2023-09-18T03:29:23;98929.22;;;20.71;
46015;BME280;36844;51.898;-0.874;2023-09-18T03:31:48;98912.13;;;20.56;
46015;BME280;36844;51.898;-0.874;2023-09-18T03:34:13;98911.97;;;20.59;
46015;BME280;36844;51.898;-0.874;2023-09-18T03:36:39;98911.81;;;20.63;
46015;BME280;36844;51.898;-0.874;2023-09-18T03:39:04;98922.63;;;20.63;
46015;BME280;36844;51.898;-0.874;2023-09-18T03:41:30;98939.91;;;20.74;
46015;BME280;36844;51.898;-0.874;2023-09-18T03:43:59;98933.31;;;20.66;
46015;BME280;36844;51.898;-0.874;2023-09-18T03:46:25;98932.56;;;20.66;
46015;BME280;36844;51.898;-0.874;2023-09-18T03:48:50;98919.63;;;20.61;
46015;BME280;36844;51.898;-0.874;2023-09-18T03:51:16;98932.69;;;20.62;
46015;BME280;36844;51.898;-0.874;2023-09-18T03:53:43;98947.91;;;20.69;
46015;BME280;36844;51.898;-0.874;2023-09-18T03:56:09;98936.59;;;20.70;
46015;BME280;36844;51.898;-0.874;2023-09-18T03:58:34;98914.69;;;20.59;
46015;BME280;36844;51.898;-0.874;2023-09-18T04:01:00;98945.31;;;20.74;
46015;BME280;36844;51.898;-0.874;2023-09-18T04:03:25;98938.25;;;20.68;
46015;BME280;36844;51.898;-0.874;2023-09-18T04:05:51;98934.81;;;20.67;
46015;BME280;36844;51.898;-0.874;2023-09-18T04:08:16;98942.34;;;20.63;
46015;BME280;36844;51.898;-0.874;2023-09-18T04:10:41;98946.72;;;20.70;
46015;BME280;36844;51.898;-0.874;2023-09-18T04:13:07;98939.03;;;20.68;
46015;BME280;36844;51.898;-0.874;2023-09-18T04:15:33;98931.66;;;20.60;
46015;BME280;36844;51.898;-0.874;2023-09-18T04:18:03;98915.75;;;20.62;
46015;BME280;36844;51.898;-0.874;2023-09-18T04:20:29;98929.38;;;20.67;
46015;BME280;36844;51.898;-0.874;2023-09-18T04:23:16;98931.94;;;20.71;
46015;BME280;36844;51.898;-0.874;2023-09-18T04:25:42;98915.84;;;20.67;
46015;BME280;36844;51.898;-0.874;2023-09-18T04:28:07;98903.53;;;20.66;
46015;BME280;36844;51.898;-0.874;2023-09-18T04:30:33;98861.03;;;20.49;
46015;BME280;36844;51.898;-0.874;2023-09-18T04:32:58;98856.38;;;20.58;
46015;BME280;36844;51.898;-0.874;2023-09-18T04:35:24;98867.19;;;20.58;
46015;BME280;36844;51.898;-0.874;2023-09-18T04:37:50;98849.34;;;20.43;
46015;BME280;36844;51.898;-0.874;2023-09-18T04:40:15;98878.13;;;20.64;
46015;BME280;36844;51.898;-0.874;2023-09-18T04:42:41;98887.91;;;20.70;
46015;BME280;36844;51.898;-0.874;2023-09-18T04:45:08;98892.44;;;20.64;
46015;BME280;36844;51.898;-0.874;2023-09-18T04:47:33;98843.78;;;20.46;
46015;BME280;36844;51.898;-0.874;2023-09-18T04:49:58;98863.69;;;20.67;
46015;BME280;36844;51.898;-0.874;2023-09-18T04:52:24;98861.03;;;20.58;
46015;BME280;36844;51.898;-0.874;2023-09-18T04:54:49;98869.28;;;20.63;
46015;BME280;36844;51.898;-0.874;2023-09-18T04:57:14;98876.34;;;20.61;
46015;BME280;36844;51.898;-0.874;2023-09-18T04:59:39;98855.34;;;20.47;
46015;BME280;36844;51.898;-0.874;2023-09-18T05:02:05;98888.03;;;20.67;
46015;BME280;36844;51.898;-0.874;2023-09-18T05:04:30;98855.63;;;20.49;
46015;BME280;36844;51.898;-0.874;2023-09-18T05:06:56;98871.09;;;20.57;
46015;BME280;36844;51.898;-0.874;2023-09-18T05:09:21;98872.00;;;20.54;
46015;BME280;36844;51.898;-0.874;2023-09-18T05:11:46;98869.91;;;20.58;
46015;BME280;36844;51.898;-0.874;2023-09-18T05:14:14;98848.28;;;20.49;
46015;BME280;36844;51.898;-0.874;2023-09-18T05:16:40;98865.53;;;20.61;
46015;BME280;36844;51.898;-0.874;2023-09-18T05:19:06;98869.44;;;20.60;
46015;BME280;36844;51.898;-0.874;2023-09-18T05:21:31;98859.84;;;20.50;
46015;BME280;36844;51.898;-0.874;2023-09-18T05:23:56;98872.63;;;20.58;
46015;BME280;36844;51.898;-0.874;2023-09-18T05:26:22;98843.59;;;20.41;
46015;BME280;36844;51.898;-0.874;2023-09-18T05:28:49;98873.94;;;20.63;
46015;BME280;36844;51.898;-0.874;2023-09-18T05:31:15;98873.94;;;20.54;
46015;BME280;36844;51.898;-0.874;2023-09-18T05:33:41;98882.97;;;20.60;
46015;BME280;36844;51.898;-0.874;2023-09-18T05:36:06;98885.22;;;20.52;
46015;BME280;36844;51.898;-0.874;2023-09-18T05:38:31;98897.69;;;20.59;
46015;BME280;36844;51.898;-0.874;2023-09-18T05:40:57;98876.84;;;20.50;
46015;BME280;36844;51.898;-0.874;2023-09-18T05:43:22;98882.25;;;20.50;
46015;BME280;36844;51.898;-0.874;2023-09-18T05:45:47;98882.81;;;20.54;
46015;BME280;36844;51.898;-0.874;2023-09-18T05:48:14;98878.63;;;20.53;
46015;BME280;36844;51.898;-0.874;2023-09-18T05:50:40;98863.47;;;20.47;
46015;BME280;36844;51.898;-0.874;2023-09-18T05:53:07;98886.59;;;20.57;
46015;BME280;36844;51.898;-0.874;2023-09-18T05:55:33;98892.16;;;20.53;
46015;BME280;36844;51.898;-0.874;2023-09-18T05:57:59;98885.38;;;20.49;
46015;BME280;36844;51.898;-0.874;2023-09-18T06:00:25;98889.00;;;20.46;
46015;BME280;36844;51.898;-0.874;2023-09-18T06:02:50;98898.28;;;20.45;
46015;BME280;36844;51.898;-0.874;2023-09-18T06:05:16;98906.41;;;20.45;
46015;BME280;36844;51.898;-0.874;2023-09-18T06:07:43;98918.72;;;20.55;
46015;BME280;36844;51.898;-0.874;2023-09-18T06:10:09;98913.78;;;20.53;
46015;BME280;36844;51.898;-0.874;2023-09-18T06:12:38;98922.63;;;20.54;
46015;BME280;36844;51.898;-0.874;2023-09-18T06:15:03;98921.91;;;20.53;
46015;BME280;36844;51.898;-0.874;2023-09-18T06:17:29;98876.69;;;20.27;
46015;BME280;36844;51.898;-0.874;2023-09-18T06:19:54;98898.75;;;20.34;
46015;BME280;36844;51.898;-0.874;2023-09-18T06:22:20;98926.09;;;20.45;
46015;BME280;36844;51.898;-0.874;2023-09-18T06:24:46;98917.09;;;20.39;
46015;BME280;36844;51.898;-0.874;2023-09-18T06:27:11;98909.41;;;20.38;
46015;BME280;36844;51.898;-0.874;2023-09-18T06:29:36;98885.56;;;20.27;
46015;BME280;36844;51.898;-0.874;2023-09-18T06:32:04;98898.59;;;20.29;
46015;BME280;36844;51.898;-0.874;2023-09-18T06:34:30;98919.31;;;20.41;
46015;BME280;36844;51.898;-0.874;2023-09-18T06:36:55;98896.78;;;20.26;
46015;BME280;36844;51.898;-0.874;2023-09-18T06:39:20;98923.53;;;20.42;
46015;BME280;36844;51.898;-0.874;2023-09-18T06:41:47;98928.38;;;20.47;
46015;BME280;36844;51.898;-0.874;2023-09-18T06:44:13;98907.63;;;20.35;
46015;BME280;36844;51.898;-0.874;2023-09-18T06:46:38;98915.44;;;20.42;
46015;BME280;36844;51.898;-0.874;2023-09-18T06:49:04;98916.47;;;20.44;
46015;BME280;36844;51.898;-0.874;2023-09-18T06:51:30;98913.19;;;20.40;
46015;BME280;36844;51.898;-0.874;2023-09-18T06:53:55;98914.53;;;20.45;
46015;BME280;36844;51.898;-0.874;2023-09-18T06:56:23;98879.97;;;20.22;
46015;BME280;36844;51.898;-0.874;2023-09-18T06:58:49;98860.44;;;20.18;
46015;BME280;36844;51.898;-0.874;2023-09-18T07:01:19;98881.78;;;20.34;
46015;BME280;36844;51.898;-0.874;2023-09-18T07:03:46;98906.41;;;20.45;
46015;BME280;36844;51.898;-0.874;2023-09-18T07:06:13;98897.25;;;20.42;
46015;BME280;36844;51.898;-0.874;2023-09-18T07:08:38;98870.94;;;20.25;
46015;BME280;36844;51.898;-0.874;2023-09-18T07:11:03;98874.25;;;20.29;
46015;BME280;36844;51.898;-0.874;2023-09-18T07:13:29;98893.66;;;20.36;
46015;BME280;36844;51.898;-0.874;2023-09-18T07:15:54;98891.69;;;20.37;
46015;BME280;36844;51.898;-0.874;2023-09-18T07:18:20;98898.28;;;20.36;
46015;BME280;36844;51.898;-0.874;2023-09-18T07:20:45;98901.00;;;20.36;
46015;BME280;36844;51.898;-0.874;2023-09-18T07:23:11;98873.53;;;20.19;
46015;BME280;36844;51.898;-0.874;2023-09-18T07:25:36;98889.28;;;20.30;
46015;BME280;36844;51.898;-0.874;2023-09-18T07:28:07;98870.38;;;20.30;
46015;BME280;36844;51.898;-0.874;2023-09-18T07:30:33;98890.78;;;20.40;
46015;BME280;36844;51.898;-0.874;2023-09-18T07:32:59;98877.25;;;20.31;
46015;BME280;36844;51.898;-0.874;2023-09-18T07:35:25;98896.19;;;20.40;
46015;BME280;36844;51.898;-0.874;2023-09-18T07:37:51;98861.94;;;20.19;
46015;BME280;36844;51.898;-0.874;2023-09-18T07:40:16;98887.47;;;20.36;
46015;BME280;36844;51.898;-0.874;2023-09-18T07:42:42;98868.56;;;20.27;
46015;BME280;36844;51.898;-0.874;2023-09-18T07:45:09;98865.38;;;20.28;
46015;BME280;36844;51.898;-0.874;2023-09-18T07:47:34;98876.97;;;20.29;
46015;BME280;36844;51.898;-0.874;2023-09-18T07:50:00;98870.06;;;20.28;
46015;BME280;36844;51.898;-0.874;2023-09-18T07:52:25;98892.59;;;20.34;
46015;BME280;36844;51.898;-0.874;2023-09-18T07:54:50;98879.66;;;20.29;
46015;BME280;36844;51.898;-0.874;2023-09-18T07:57:16;98863.13;;;20.18;
46015;BME280;36844;51.898;-0.874;2023-09-18T07:59:41;98900.88;;;20.39;
46015;BME280;36844;51.898;-0.874;2023-09-18T08:02:09;98883.28;;;20.26;
46015;BME280;36844;51.898;-0.874;2023-09-18T08:04:35;98879.25;;;20.30;
46015;BME280;36844;51.898;-0.874;2023-09-18T08:07:00;98865.13;;;20.26;
46015;BME280;36844;51.898;-0.874;2023-09-18T08:09:26;98882.84;;;20.36;
46015;BME280;36844;51.898;-0.874;2023-09-18T08:11:54;98855.50;;;20.16;
46015;BME280;36844;51.898;-0.874;2023-09-18T08:14:23;98853.22;;;20.15;
46015;BME280;36844;51.898;-0.874;2023-09-18T08:16:48;98874.56;;;20.31;
46015;BME280;36844;51.898;-0.874;2023-09-18T08:19:16;98862.41;;;20.26;
46015;BME280;36844;51.898;-0.874;2023-09-18T08:21:42;98867.50;;;20.33;
46015;BME280;36844;51.898;-0.874;2023-09-18T08:24:07;98849.94;;;20.29;
46015;BME280;36844;51.898;-0.874;2023-09-18T08:26:33;98849.94;;;20.29;
46015;BME280;36844;51.898;-0.874;2023-09-18T08:28:58;98867.94;;;20.41;
46015;BME280;36844;51.898;-0.874;2023-09-18T08:31:23;98854.44;;;20.32;
46015;BME280;36844;51.898;-0.874;2023-09-18T08:33:49;98830.56;;;20.21;
46015;BME280;36844;51.898;-0.874;2023-09-18T08:36:16;98856.56;;;20.37;
46015;BME280;36844;51.898;-0.874;2023-09-18T08:38:41;98846.66;;;20.34;
46015;BME280;36844;51.898;-0.874;2023-09-18T08:41:09;98858.94;;;20.44;
46015;BME280;36844;51.898;-0.874;2023-09-18T08:43:35;98839.88;;;20.38;
46015;BME280;36844;51.898;-0.874;2023-09-18T08:46:01;98848.88;;;20.44;
46015;BME280;36844;51.898;-0.874;2023-09-18T08:48:28;98841.38;;;20.39;
46015;BME280;36844;51.898;-0.874;2023-09-18T08:51:01;98841.66;;;20.41;
46015;BME280;36844;51.898;-0.874;2023-09-18T08:53:31;98841.97;;;20.43;
46015;BME280;36844;51.898;-0.874;2023-09-18T08:55:58;98825.59;;;20.38;
46015;BME280;36844;51.898;-0.874;2023-09-18T08:58:25;98811.94;;;20.32;
46015;BME280;36844;51.898;-0.874;2023-09-18T09:00:52;98830.56;;;20.39;
46015;BME280;36844;51.898;-0.874;2023-09-18T09:03:18;98827.38;;;20.41;
46015;BME280;36844;51.898;-0.874;2023-09-18T09:05:43;98832.78;;;20.41;
46015;BME280;36844;51.898;-0.874;2023-09-18T09:08:09;98823.66;;;20.38;
46015;BME280;36844;51.898;-0.874;2023-09-18T09:10:34;98807.28;;;20.33;
46015;BME280;36844;51.898;-0.874;2023-09-18T09:13:00;98832.06;;;20.49;
46015;BME280;36844;51.898;-0.874;2023-09-18T09:15:43;98792.88;;;20.27;
46015;BME280;36844;51.898;-0.874;2023-09-18T09:18:12;98813.88;;;20.41;
46015;BME280;36844;51.898;-0.874;2023-09-18T09:20:37;98810.44;;;20.40;
46015;BME280;36844;51.898;-0.874;2023-09-18T09:23:08;98811.91;;;20.41;
46015;BME280;36844;51.898;-0.874;2023-09-18T09:25:35;98815.38;;;20.42;
46015;BME280;36844;51.898;-0.874;2023-09-18T09:28:03;98817.50;;;20.47;
46015;BME280;36844;51.898;-0.874;2023-09-18T09:30:35;98821.06;;;20.53;
46015;BME280;36844;51.898;-0.874;2023-09-18T09:33:02;98816.09;;;20.51;
46015;BME280;36844;51.898;-0.874;2023-09-18T09:35:29;98782.34;;;20.38;
46015;BME280;36844;51.898;-0.874;2023-09-18T09:38:07;98809.03;;;20.54;
46015;BME280;36844;51.898;-0.874;2023-09-18T09:40:33;98798.84;;;20.49;
46015;BME280;36844;51.898;-0.874;2023-09-18T09:42:58;98799.00;;;20.45;
46015;BME280;36844;51.898;-0.874;2023-09-18T09:45:31;98789.22;;;20.48;
46015;BME280;36844;51.898;-0.874;2023-09-18T09:48:02;98796.56;;;20.56;
46015;BME280;36844;51.898;-0.874;2023-09-18T09:50:29;98788.19;;;20.45;
46015;BME280;36844;51.898;-0.874;2023-09-18T09:52:55;98790.72;;;20.58;
46015;BME280;36844;51.898;-0.874;2023-09-18T09:57:49;98783.34;;;20.58;
46015;BME280;36844;51.898;-0.874;2023-09-18T10:00:15;98736.97;;;20.33;
46015;BME280;36844;51.898;-0.874;2023-09-18T10:02:50;98757.34;;;20.52;
46015;BME280;36844;51.898;-0.874;2023-09-18T10:05:17;98768.78;;;20.56;
46015;BME280;36844;51.898;-0.874;2023-09-18T10:07:44;98755.41;;;20.52;
46015;BME280;36844;51.898;-0.874;2023-09-18T10:10:10;98755.56;;;20.49;
46015;BME280;36844;51.898;-0.874;2023-09-18T10:12:37;98751.53;;;20.53;
46015;BME280;36844;51.898;-0.874;2023-09-18T10:15:04;98751.34;;;20.57;
46015;BME280;36844;51.898;-0.874;2023-09-18T10:17:30;98753.88;;;20.60;
46015;BME280;36844;51.898;-0.874;2023-09-18T10:20:09;98757.94;;;20.65;
46015;BME280;36844;51.898;-0.874;2023-09-18T10:22:53;98765.28;;;20.64;
46015;BME280;36844;51.898;-0.874;2023-09-18T10:25:23;98754.03;;;20.66;
46015;BME280;36844;51.898;-0.874;2023-09-18T10:27:50;98737.06;;;20.56;
46015;BME280;36844;51.898;-0.874;2023-09-18T10:30:24;98745.03;;;20.60;
46015;BME280;36844;51.898;-0.874;2023-09-18T10:32:52;98757.00;;;20.68;
46015;BME280;36844;51.898;-0.874;2023-09-18T10:35:18;98743.34;;;20.62;
46015;BME280;36844;51.898;-0.874;2023-09-18T10:37:46;98739.31;;;20.58;
46015;BME280;36844;51.898;-0.874;2023-09-18T10:40:12;98746.34;;;20.64;
46015;BME280;36844;51.898;-0.874;2023-09-18T10:42:39;98757.34;;;20.70;
46015;BME280;36844;51.898;-0.874;2023-09-18T10:45:06;98733.63;;;20.56;
46015;BME280;36844;51.898;-0.874;2023-09-18T10:47:37;98749.81;;;20.65;
46015;BME280;36844;51.898;-0.874;2023-09-18T10:50:03;98745.50;;;20.58;
46015;BME280;36844;51.898;-0.874;2023-09-18T10:52:30;98749.69;;;20.59;
46015;BME280;36844;51.898;-0.874;2023-09-18T10:54:55;98756.41;;;20.64;
46015;BME280;36844;51.898;-0.874;2023-09-18T10:57:21;98758.69;;;20.65;
46015;BME280;36844;51.898;-0.874;2023-09-18T10:59:47;98766.91;;;20.71;
46015;BME280;36844;51.898;-0.874;2023-09-18T11:02:16;98764.97;;;20.71;
46015;BME280;36844;51.898;-0.874;2023-09-18T11:04:43;98773.84;;;20.72;
46015;BME280;36844;51.898;-0.874;2023-09-18T11:07:09;98744.59;;;20.52;
46015;BME280;36844;51.898;-0.874;2023-09-18T11:09:44;98770.38;;;20.71;
46015;BME280;36844;51.898;-0.874;2023-09-18T11:12:11;98771.88;;;20.72;
46015;BME280;36844;51.898;-0.874;2023-09-18T11:14:58;98753.44;;;20.62;
46015;BME280;36844;51.898;-0.874;2023-09-18T11:17:35;98747.44;;;20.58;
46015;BME280;36844;51.898;-0.874;2023-09-18T11:20:23;98754.16;;;20.62;
46015;BME280;36844;51.898;-0.874;2023-09-18T11:22:59;98764.69;;;20.69;
46015;BME280;36844;51.898;-0.874;2023-09-18T11:25:35;98760.03;;;20.70;
46015;BME280;36844;51.898;-0.874;2023-09-18T11:28:01;98750.28;;;20.63;
46015;BME280;36844;51.898;-0.874;2023-09-18T11:30:28;98742.78;;;20.58;
46015;BME280;36844;51.898;-0.874;2023-09-18T11:32:55;98738.25;;;20.55;
46015;BME280;36844;51.898;-0.874;2023-09-18T11:35:21;98736.78;;;20.54;
46015;BME280;36844;51.898;-0.874;2023-09-18T11:37:47;98752.97;;;20.72;
46015;BME280;36844;51.898;-0.874;2023-09-18T11:40:30;98738.84;;;20.68;
46015;BME280;36844;51.898;-0.874;2023-09-18T11:45:49;98730.13;;;20.64;
46015;BME280;36844;51.898;-0.874;2023-09-18T11:48:16;98740.50;;;20.66;
46015;BME280;36844;51.898;-0.874;2023-09-18T11:50:41;98723.38;;;20.51;
46015;BME280;36844;51.898;-0.874;2023-09-18T11:53:08;98741.88;;;20.61;
46015;BME280;36844;51.898;-0.874;2023-09-18T11:55:33;98745.16;;;20.65;
46015;BME280;36844;51.898;-0.874;2023-09-18T11:57:59;98748.63;;;20.66;
46015;BME280;36844;51.898;-0.874;2023-09-18T12:00:26;98755.50;;;20.76;
46015;BME280;36844;51.898;-0.874;2023-09-18T12:02:53;98739.16;;;20.61;
46015;BME280;36844;51.898;-0.874;2023-09-18T12:05:20;98756.84;;;20.71;
46015;BME280;36844;51.898;-0.874;2023-09-18T12:07:46;98761.81;;;20.73;
46015;BME280;36844;51.898;-0.874;2023-09-18T12:10:15;98751.34;;;20.66;
46015;BME280;36844;51.898;-0.874;2023-09-18T12:12:46;98773.22;;;20.77;
46015;BME280;36844;51.898;-0.874;2023-09-18T12:15:12;98757.94;;;20.65;
46015;BME280;36844;51.898;-0.874;2023-09-18T12:17:38;98745.03;;;20.60;
46015;BME280;36844;51.898;-0.874;2023-09-18T12:20:04;98761.25;;;20.60;
46015;BME280;36844;51.898;-0.874;2023-09-18T12:22:31;98786.75;;;20.77;
46015;BME280;36844;51.898;-0.874;2023-09-18T12:25:12;98778.31;;;20.75;
46015;BME280;36844;51.898;-0.874;2023-09-18T12:27:39;98776.28;;;20.70;
46015;BME280;36844;51.898;-0.874;2023-09-18T12:30:05;98776.28;;;20.70;
46015;BME280;36844;51.898;-0.874;2023-09-18T12:32:30;98783.78;;;20.66;
46015;BME280;36844;51.898;-0.874;2023-09-18T12:34:57;98754.94;;;20.54;
46015;BME280;36844;51.898;-0.874;2023-09-18T12:37:23;98787.50;;;20.77;
46015;BME280;36844;51.898;-0.874;2023-09-18T12:39:48;98784.94;;;20.74;
46015;BME280;36844;51.898;-0.874;2023-09-18T12:42:18;98774.16;;;20.65;
46015;BME280;36844;51.898;-0.874;2023-09-18T12:44:43;98779.69;;;20.70;
46015;BME280;36844;51.898;-0.874;2023-09-18T12:47:08;98780.91;;;20.60;
46015;BME280;36844;51.898;-0.874;2023-09-18T12:49:35;98801.75;;;20.78;
46015;BME280;36844;51.898;-0.874;2023-09-18T12:52:01;98794.28;;;20.73;
46015;BME280;36844;51.898;-0.874;2023-09-18T12:54:38;98806.28;;;20.81;
46015;BME280;36844;51.898;-0.874;2023-09-18T12:57:05;98801.50;;;20.76;
46015;BME280;36844;51.898;-0.874;2023-09-18T12:59:32;98793.69;;;20.69;
46015;BME280;36844;51.898;-0.874;2023-09-18T13:01:58;98797.44;;;20.62;
46015;BME280;36844;51.898;-0.874;2023-09-18T13:04:23;98785.16;;;20.52;
46015;BME280;36844;51.898;-0.874;2023-09-18T13:07:12;98837.25;;;20.71;
46015;BME280;36844;51.898;-0.874;2023-09-18T13:09:38;98847.63;;;20.81;
46015;BME280;36844;51.898;-0.874;2023-09-18T13:12:04;98856.63;;;20.78;
46015;BME280;36844;51.898;-0.874;2023-09-18T13:17:25;98834.88;;;20.55;
46015;BME280;36844;51.898;-0.874;2023-09-18T13:19:52;98859.66;;;20.71;
46015;BME280;36844;51.898;-0.874;2023-09-18T13:22:24;98872.41;;;20.71;
46015;BME280;36844;51.898;-0.874;2023-09-18T13:24:55;98852.63;;;20.56;
46015;BME280;36844;51.898;-0.874;2023-09-18T13:27:21;98865.22;;;20.68;
46015;BME280;36844;51.898;-0.874;2023-09-18T13:29:48;98856.97;;;20.62;
46015;BME280;36844;51.898;-0.874;2023-09-18T13:32:14;98870.97;;;20.70;
46015;BME280;36844;51.898;-0.874;2023-09-18T13:34:39;98871.22;;;20.72;
46015;BME280;36844;51.898;-0.874;2023-09-18T13:37:05;98886.28;;;20.73;
46015;BME280;36844;51.898;-0.874;2023-09-18T13:39:30;98879.78;;;20.70;
46015;BME280;36844;51.898;-0.874;2023-09-18T13:41:55;98888.50;;;20.74;
46015;BME280;36844;51.898;-0.874;2023-09-18T13:44:22;98884.63;;;20.66;
46015;BME280;36844;51.898;-0.874;2023-09-18T13:46:47;98892.13;;;20.71;
46015;BME280;36844;51.898;-0.874;2023-09-18T13:49:12;98909.25;;;20.77;
46015;BME280;36844;51.898;-0.874;2023-09-18T13:51:38;98901.91;;;20.69;
46015;BME280;36844;51.898;-0.874;2023-09-18T13:54:03;98891.09;;;20.60;